METAR Formatted Surface Weather Observation
Issued by NWS

Home | Current Version | Previous Version | Text Only | Print | Product List | Glossary On
Versions: 1 2 3 4 5 6 7 8 9 10 11 12 13 14 15 16 17
000
SAUS42 KTAE 180535 COR
MTR1J0
METAR K1J0 180458Z AUTO 02003KT 10SM CLR 13/08 A3022 RMK AO2 SLP190
T01330083 TSNO $



USA.gov is the U.S. government's official web portal to all federal, state and local government web resources and services.